• Join FlightAware (Why Join?)
  • Login
  • US Flag 
07:15PM EST


 

Airport Tracker/Info


-or-


 

Live Flight TrackerFlight Track Log ✈ FLG4262 ✈ 23-Sep-2013 ✈ KBGM - KDTW

Flight Track Log - Related Links

Times and Time Zones

All times are in EDT time to prevent confusion due to time zone crossing. See the FLG4262 flight status page for this flight to view local times or setup timezone preferences in your user account.

Time Position Orientation Groundspeed Altitude Reporting Facility
EDT Latitude Longitude Course Direction KTS MPH feet Rate Location/Type
05:25PM 42.2628 -76.1225 292° West 226 260 5,800  Level New York Center
05:26PM 42.2242 -76.4993 291° West  Level Estimated
05:26PM 42.2897 -76.2172 291° West 251 289 7,900  Level New York Center
05:27PM 42.2278 -76.6293 287° West  Level Estimated
05:27PM 42.3186 -76.3122 292° West 267 307 10,300  Level New York Center
05:28PM 42.2312 -76.7592 294° West  Level Estimated
05:28PM 42.3472 -76.4156 291° West 279 321 11,700  Level New York Center
05:28PM 42.3653 -76.4831 290° West 314 361 12,500 1,320 Climbing Cleveland Center
05:29PM 42.2345 -76.8892 289° West  Level Estimated
05:29PM 42.3981 -76.6017 291° West 334 384 13,900  Level Cleveland Center
05:30PM 42.4319 -76.7256 290° West 346 398 15,300 1,320 Climbing Cleveland Center
05:31PM 42.4647 -76.8492 290° West 350 403 16,700 1,260 Climbing Cleveland Center
05:32PM 42.4972 -76.9753 289° West 355 409 18,000 1,200 Climbing Cleveland Center
05:33PM 42.5314 -77.1003 290° West 354 407 19,300 1,200 Climbing Cleveland Center
05:34PM 42.5722 -77.2542 290° West 362 417 20,500 1,020 Climbing Cleveland Center
05:36PM 42.6064 -77.3839 290° West 366 421 21,500 780 Climbing Cleveland Center
05:37PM 42.6419 -77.5219 289° West 373 429 22,200 600 Climbing Cleveland Center
05:38PM 42.6472 -77.6669 273° West 382 440 22,800 480 Climbing Cleveland Center
05:39PM 42.6531 -77.8261 273° West 394 453 23,300 420 Climbing Cleveland Center
05:40PM 42.6581 -77.9806 273° West 407 468 23,700 300 Climbing Cleveland Center
05:41PM 42.6617 -78.1361 272° West 413 475 24,000 120 Climbing Cleveland Center
05:42PM 42.6664 -78.2969 272° West 425 489 24,000  Level Cleveland Center
05:43PM 42.6711 -78.4944 272° West 435 501 24,000  Level Cleveland Center
05:44PM 42.6764 -78.6614 273° West 442 509 24,000  Level Cleveland Center
05:45PM 42.6822 -78.8278 273° West 442 509 24,000  Level Cleveland Center
05:46PM 42.6844 -78.9944 271° West 441 507 24,000  Level Cleveland Center
05:47PM 42.6875 -79.1625 271° West 446 513 24,000  Level Cleveland Center
05:48PM 42.6897 -79.3286 271° West 443 510 24,000  Level Cleveland Center
05:49PM 42.6933 -79.5297 271° West 445 512 24,000  Level Cleveland Center
05:50PM 42.6956 -79.6975 271° West 445 512 24,000  Level Cleveland Center
05:51PM 42.6986 -79.8642 271° West 443 510 24,000  Level Cleveland Center
05:52PM 42.6978 -80.0278 270° West 444 511 24,000  Level Cleveland Center
05:53PM 42.7006 -80.1978 271° West 447 514 24,000  Level Cleveland Center
05:54PM 42.7006 -80.3947 270° West 444 511 24,000  Level Cleveland Center
05:55PM 42.7028 -80.5661 271° West 449 517 24,000  Level Cleveland Center
05:56PM 42.7056 -80.7378 271° West 452 520 24,000  Level Cleveland Center
05:57PM 42.7047 -80.8983 270° West 432 497 24,000  Level Cleveland Center
05:58PM 42.6878 -81.0489 261° West 406 467 24,000 -180 Level Cleveland Center
05:59PM 42.6697 -81.2008 261° West 405 466 23,700 -540 Descending Cleveland Center
06:00PM 42.6481 -81.3853 261° West 418 481 23,000 -360 Descending Cleveland Center
06:01PM 42.6306 -81.5406 261° West 416 479 23,000  Level Cleveland Center
06:02PM 42.6128 -81.6892 261° West 402 463 23,000 -480 Level Cleveland Center
06:03PM 42.5933 -81.8472 261° West 397 457 22,100 -1,500 Descending Cleveland Center
06:05PM 42.5747 -81.9967 260° West 401 461 19,900 -2,100 Descending Cleveland Center
06:06PM 42.5586 -82.1342 261° West 374 430 17,800 -2,220 Descending Cleveland Center
06:07PM 42.5411 -82.2792 261° West 333 383 15,300 -2,040 Descending Cleveland Center
06:08PM 42.5272 -82.3906 260° West 325 374 13,800 -1,440 Descending Cleveland Center
06:08PM 42.5264 -82.3817 97° East 332 382 13,900 -1,380 Climbing Cleveland Center
06:09PM 42.5119 -82.5028 261° West 327 376 12,300 -1,800 Descending Cleveland Center
06:09PM 42.5092 -82.5297 262° West 328 377 12,000 -300 Descending Cleveland Center
06:10PM 42.4739 -82.6339 245° Southwest 312 359 12,000  Level Cleveland Center
06:10PM 42.4742 -82.6383 275° West 311 358 12,000 -1,320 Level Cleveland Center
06:11PM 42.4422 -82.7331 245° Southwest 304 350 10,800 -1,320 Descending Cleveland Center
06:11PM 42.4375 -82.7397 226° Southwest 311 358 10,700 -1,260 Descending Cleveland Center
06:12PM 42.4031 -82.8411 245° Southwest 265 305 9,400 -1,260 Descending Cleveland Center
06:12PM 42.4031 -82.8356 90° East 295 339 9,400 -1,140 Level Cleveland Center
06:13PM 42.3825 -82.9203 252° West 226 260 8,300 -1,080 Descending Cleveland Center
06:13PM 42.3792 -82.9125 120° Southeast 235 270 8,300 -300 Level Cleveland Center
06:14PM 42.4244 -82.9739 315° West 195 224 8,000 -300 Descending Cleveland Center
06:14PM 42.4208 -82.9683 131° Southeast 215 247 8,000 -960 Level Cleveland Center
06:15PM 42.4747 -83.0289 320° Northwest 212 244 7,000 -540 Descending Cleveland Center
06:16PM 42.5064 -83.0842 308° West 222 255 7,000  Level Cleveland Center
06:16PM 42.5022 -83.0925 236° Southwest 224 258 7,000 -1,140 Level Cleveland Center
06:17PM 42.4775 -83.1622 244° Southwest 220 253 5,900 -1,200 Descending Cleveland Center
06:17PM 42.4739 -83.1661 218° Southwest 221 254 5,800 -900 Descending Cleveland Center
06:18PM 42.4325 -83.2011 212° Southwest 172 198 5,000 -900 Descending Cleveland Center
06:18PM 42.4292 -83.2014 184° South 190 219 4,900 -900 Descending Cleveland Center
06:19PM 42.3861 -83.2344 210° Southwest 189 217 4,100 -900 Descending Cleveland Center
06:19PM 42.3844 -83.2339 166° South 181 208 4,000 -1,020 Descending Cleveland Center
06:20PM 42.3417 -83.2678 210° Southwest 181 208 3,100 -1,020 Descending Cleveland Center
06:20PM 42.3389 -83.2692 200° South 185 213 3,000 -1,020 Descending Cleveland Center
06:21PM 42.2972 -83.3008 209° Southwest 178 205 2,100 -900 Descending Cleveland Center
06:21PM 42.2953 -83.3014 192° South 182 209 2,100 -840 Level Cleveland Center
06:22PM 42.2550 -83.3317 209° Southwest 152 175 1,300 -1,020 Descending Cleveland Center
06:22PM 42.2472 -83.3356 200° South 168 193 1,100 -840 Descending Cleveland Center